sensor_id;sensor_type;location;lat;lon;timestamp;pressure;altitude;pressure_sealevel;temperature;humidity
71903;BME280;59778;50.310;18.780;2023-04-08T00:01:38;98908.34;;;3.57;100.00
71903;BME280;59778;50.310;18.780;2023-04-08T00:16:59;98905.34;;;3.70;100.00
71903;BME280;59778;50.310;18.780;2023-04-08T00:32:21;98919.34;;;3.64;100.00
71903;BME280;59778;50.310;18.780;2023-04-08T00:47:42;98933.50;;;3.56;100.00
71903;BME280;59778;50.310;18.780;2023-04-08T01:03:15;98943.25;;;3.57;100.00
71903;BME280;59778;50.310;18.780;2023-04-08T01:18:38;98946.66;;;3.59;100.00
71903;BME280;59778;50.310;18.780;2023-04-08T01:34:02;98959.63;;;3.64;100.00
71903;BME280;59778;50.310;18.780;2023-04-08T01:49:26;98966.22;;;3.32;100.00
71903;BME280;59778;50.310;18.780;2023-04-08T02:04:49;98961.72;;;3.23;100.00
71903;BME280;59778;50.310;18.780;2023-04-08T02:20:25;98972.16;;;3.26;100.00
71903;BME280;59778;50.310;18.780;2023-04-08T02:35:52;98977.56;;;3.07;100.00
71903;BME280;59778;50.310;18.780;2023-04-08T02:51:14;98990.72;;;2.91;100.00
71903;BME280;59778;50.310;18.780;2023-04-08T03:06:36;99001.00;;;2.67;100.00
71903;BME280;59778;50.310;18.780;2023-04-08T03:21:57;99005.25;;;2.79;100.00
71903;BME280;59778;50.310;18.780;2023-04-08T03:37:18;99006.63;;;2.73;100.00
71903;BME280;59778;50.310;18.780;2023-04-08T03:52:39;99028.22;;;2.62;100.00
71903;BME280;59778;50.310;18.780;2023-04-08T04:08:01;99039.03;;;2.42;100.00
71903;BME280;59778;50.310;18.780;2023-04-08T04:23:22;99051.84;;;2.28;100.00
71903;BME280;59778;50.310;18.780;2023-04-08T04:38:45;99072.06;;;2.42;100.00
71903;BME280;59778;50.310;18.780;2023-04-08T04:54:07;99083.78;;;2.51;100.00
71903;BME280;59778;50.310;18.780;2023-04-08T05:09:29;99086.03;;;2.46;100.00
71903;BME280;59778;50.310;18.780;2023-04-08T05:24:51;99102.91;;;2.76;100.00
71903;BME280;59778;50.310;18.780;2023-04-08T05:40:13;99118.47;;;2.92;100.00
71903;BME280;59778;50.310;18.780;2023-04-08T05:55:34;99131.34;;;3.17;100.00
71903;BME280;59778;50.310;18.780;2023-04-08T06:11:01;99144.50;;;3.40;98.71
71903;BME280;59778;50.310;18.780;2023-04-08T06:26:25;99152.25;;;3.91;98.05
71903;BME280;59778;50.310;18.780;2023-04-08T06:41:47;99170.66;;;4.42;94.09
71903;BME280;59778;50.310;18.780;2023-04-08T06:57:12;99176.31;;;5.03;90.31
71903;BME280;59778;50.310;18.780;2023-04-08T07:12:33;99189.28;;;5.35;88.43
71903;BME280;59778;50.310;18.780;2023-04-08T07:27:55;99204.03;;;5.93;84.09
71903;BME280;59778;50.310;18.780;2023-04-08T07:43:16;99213.31;;;6.60;79.40
71903;BME280;59778;50.310;18.780;2023-04-08T07:58:38;99216.75;;;6.70;80.25
71903;BME280;59778;50.310;18.780;2023-04-08T08:14:00;99224.88;;;7.46;76.15
71903;BME280;59778;50.310;18.780;2023-04-08T08:29:21;99227.91;;;7.51;75.99
71903;BME280;59778;50.310;18.780;2023-04-08T08:44:43;99234.44;;;8.06;71.60
71903;BME280;59778;50.310;18.780;2023-04-08T09:00:05;99236.28;;;8.79;74.18
71903;BME280;59778;50.310;18.780;2023-04-08T09:15:26;99264.19;;;8.95;69.02
71903;BME280;59778;50.310;18.780;2023-04-08T09:30:48;99279.69;;;9.18;70.45
71903;BME280;59778;50.310;18.780;2023-04-08T09:46:10;99272.41;;;9.65;65.06
71903;BME280;59778;50.310;18.780;2023-04-08T10:01:44;99266.34;;;9.86;67.68
71903;BME280;59778;50.310;18.780;2023-04-08T10:17:25;99272.25;;;10.43;66.25
71903;BME280;59778;50.310;18.780;2023-04-08T10:32:47;99283.31;;;10.79;63.17
71903;BME280;59778;50.310;18.780;2023-04-08T10:48:18;99262.09;;;10.60;60.75
71903;BME280;59778;50.310;18.780;2023-04-08T11:03:42;99265.56;;;11.64;59.94
71903;BME280;59778;50.310;18.780;2023-04-08T11:19:04;99263.97;;;11.11;57.58
71903;BME280;59778;50.310;18.780;2023-04-08T11:34:26;99280.19;;;10.67;58.67
71903;BME280;59778;50.310;18.780;2023-04-08T11:49:48;99278.66;;;9.97;61.85
71903;BME280;59778;50.310;18.780;2023-04-08T12:05:10;99279.03;;;9.93;60.74
71903;BME280;59778;50.310;18.780;2023-04-08T12:20:40;99283.66;;;9.46;63.71
71903;BME280;59778;50.310;18.780;2023-04-08T12:36:02;99297.91;;;9.48;64.34
71903;BME280;59778;50.310;18.780;2023-04-08T12:51:23;99293.34;;;9.40;68.17
71903;BME280;59778;50.310;18.780;2023-04-08T13:06:46;99292.13;;;9.04;69.69
71903;BME280;59778;50.310;18.780;2023-04-08T13:22:07;99299.53;;;9.10;71.96
71903;BME280;59778;50.310;18.780;2023-04-08T13:37:29;99298.69;;;9.02;74.88
71903;BME280;59778;50.310;18.780;2023-04-08T13:52:52;99300.09;;;8.65;77.01
71903;BME280;59778;50.310;18.780;2023-04-08T14:08:13;99306.53;;;8.40;79.38
71903;BME280;59778;50.310;18.780;2023-04-08T14:23:35;99294.34;;;8.36;81.56
71903;BME280;59778;50.310;18.780;2023-04-08T14:38:58;99308.53;;;8.14;82.09
71903;BME280;59778;50.310;18.780;2023-04-08T14:54:22;99297.03;;;8.28;82.49
71903;BME280;59778;50.310;18.780;2023-04-08T15:09:45;99297.91;;;8.36;81.62
71903;BME280;59778;50.310;18.780;2023-04-08T15:25:33;99311.63;;;8.51;81.96
71903;BME280;59778;50.310;18.780;2023-04-08T15:40:57;99312.31;;;8.45;82.92
71903;BME280;59778;50.310;18.780;2023-04-08T15:56:24;99319.38;;;8.38;84.17
71903;BME280;59778;50.310;18.780;2023-04-08T16:11:47;99322.94;;;8.55;83.24
71903;BME280;59778;50.310;18.780;2023-04-08T16:27:08;99333.13;;;8.52;82.95
71903;BME280;59778;50.310;18.780;2023-04-08T16:42:30;99332.75;;;8.39;83.54
71903;BME280;59778;50.310;18.780;2023-04-08T16:57:53;99346.63;;;8.36;83.88
71903;BME280;59778;50.310;18.780;2023-04-08T17:13:15;99349.63;;;8.25;84.44
71903;BME280;59778;50.310;18.780;2023-04-08T17:28:37;99367.88;;;8.23;84.26
71903;BME280;59778;50.310;18.780;2023-04-08T17:43:59;99379.16;;;8.11;84.30
71903;BME280;59778;50.310;18.780;2023-04-08T17:59:30;99378.31;;;8.10;84.27
71903;BME280;59778;50.310;18.780;2023-04-08T18:14:51;99410.22;;;7.98;86.10
71903;BME280;59778;50.310;18.780;2023-04-08T18:30:25;99413.56;;;7.84;87.61
71903;BME280;59778;50.310;18.780;2023-04-08T18:45:47;99417.91;;;7.77;88.11
71903;BME280;59778;50.310;18.780;2023-04-08T19:01:08;99429.03;;;7.66;88.89
71903;BME280;59778;50.310;18.780;2023-04-08T19:16:30;99430.53;;;7.69;89.57
71903;BME280;59778;50.310;18.780;2023-04-08T19:31:52;99434.19;;;7.59;90.89
71903;BME280;59778;50.310;18.780;2023-04-08T19:47:13;99440.72;;;7.49;92.07
71903;BME280;59778;50.310;18.780;2023-04-08T20:02:37;99427.50;;;7.38;92.94
71903;BME280;59778;50.310;18.780;2023-04-08T20:17:58;99425.66;;;7.38;92.75
71903;BME280;59778;50.310;18.780;2023-04-08T20:33:19;99417.34;;;7.40;93.11
71903;BME280;59778;50.310;18.780;2023-04-08T20:48:41;99427.03;;;7.42;93.45
71903;BME280;59778;50.310;18.780;2023-04-08T21:04:02;99437.19;;;7.23;94.85
71903;BME280;59778;50.310;18.780;2023-04-08T21:19:25;99436.34;;;7.22;95.24
71903;BME280;59778;50.310;18.780;2023-04-08T21:34:47;99461.50;;;7.23;96.82
71903;BME280;59778;50.310;18.780;2023-04-08T21:50:08;99458.03;;;6.77;100.00
71903;BME280;59778;50.310;18.780;2023-04-08T22:05:31;99461.81;;;6.84;100.00
71903;BME280;59778;50.310;18.780;2023-04-08T22:20:52;99474.38;;;6.58;100.00
71903;BME280;59778;50.310;18.780;2023-04-08T22:36:14;99464.72;;;6.38;100.00
71903;BME280;59778;50.310;18.780;2023-04-08T22:51:35;99442.19;;;6.29;100.00
71903;BME280;59778;50.310;18.780;2023-04-08T23:06:57;99438.81;;;6.27;100.00
71903;BME280;59778;50.310;18.780;2023-04-08T23:22:18;99431.47;;;6.20;100.00
71903;BME280;59778;50.310;18.780;2023-04-08T23:37:39;99446.16;;;6.07;100.00
71903;BME280;59778;50.310;18.780;2023-04-08T23:53:00;99450.94;;;6.13;100.00
